KLOU/LOU METAR and TAF weather

Enter ICAO airport designator
Station Type Date Time Source
KLOU METAR 2019/08/24 06:53 UTC NOAA

KLOU 240653Z AUTO 04003KT 10SM CLR 17/13 A3015 RMK AO2 SLP205 T01720128


Station Type Date Time Source
KLOU Decoded METAR 2019/08/24 06:53 UTC NOAA

Station name not available
Aug 24, 2019 - 02:53 AM EDT / 2019.08.24 0653 UTC
Wind: from the NE (040 degrees) at 3 MPH (3 KT):0
Visibility: 10 mile(s):0
Sky conditions: clear
Temperature: 63.0 F (17.2 C)
Dew Point: 55.0 F (12.8 C)
Relative Humidity: 75%
Pressure (altimeter): 30.15 in. Hg (1020 hPa)
ob: KLOU 240653Z AUTO 04003KT 10SM CLR 17/13 A3015 RMK AO2 SLP205 T01720128
cycle: 7

Station Type Date Time Source
KLOU TAF UTC NOAA

Error!

Example: see airport list